Flight Track Log - Related Links

Times and Time Zones

All times are in EDT time to prevent confusion due to time zone crossing. See the SWA303 flight status page for this flight to view local times or setup timezone preferences in your user account.

Time Position Orientation Groundspeed Altitude Reporting Facility
EDT Latitude Longitude Course Direction KTS MPH feet Rate Location/Type
Wed 02:33:55 PM 39.9333 -104.6667 90° East 196 226 7,200  Level Denver TRACON
Wed 02:34:49 PM 39.9667 -104.6167 49° Northeast 258 297 9,100 2,730 Climbing Denver TRACON
Wed 02:37:04 PM 40.0039 -104.3747 79° East 354 407 15,800 2,954 Climbing Denver Center
Wed 02:38:06 PM 39.9753 -104.2267 104° East 388 447 18,800 2,661 Climbing Denver Center
Wed 02:39:00 PM 39.8833 -103.6412 90° East  Level FlightAware Approximate
Wed 02:39:08 PM 39.9486 -104.0833 104° East 411 473 21,300  Level Denver Center
Wed 02:40:10 PM 39.9178 -103.9183 104° East 434 499 23,900 2,032 Climbing Denver Center
Wed 02:41:12 PM 39.8922 -103.7750 103° East 452 520 25,500 1,645 Climbing Denver Center
Wed 02:42:14 PM 39.9017 -103.5742 86° East 481 554 27,300 1,597 Climbing Denver Center
Wed 02:43:16 PM 39.9239 -103.3900 81° East 506 582 28,800 1,403 Climbing Denver Center
Wed 02:44:18 PM 39.9447 -103.2000 82° East 525 604 30,200 1,355 Climbing Denver Center
Wed 02:45:20 PM 39.9656 -103.0031 82° East 542 624 31,600 1,548 Climbing Denver Center
Wed 02:46:22 PM 39.9886 -102.8017 81° East 554 638 33,400 1,887 Climbing Denver Center
Wed 02:47:24 PM 40.0094 -102.5864 83° East 549 632 35,500 1,707 Climbing Denver Center
Wed 02:48:25 PM 40.0297 -102.4008 82° East 543 625 36,900 1,366 Climbing Denver Center
Wed 02:49:27 PM 40.0514 -102.1864 82° East 535 616 38,300 1,016 Climbing Denver Center
Wed 02:50:29 PM 40.0700 -102.0044 82° East 531 611 39,000 339 Climbing Denver Center
Wed 02:51:31 PM 40.0908 -101.7931 83° East 528 608 39,000  Level Denver Center
Wed 02:52:33 PM 40.1097 -101.6122 82° East 527 606 39,000  Level Denver Center
Wed 02:53:47 PM 40.1258 -101.4292 83° East 531 611 39,000  Level Denver Center
Wed 02:54:49 PM 40.1497 -101.1883 83° East 527 606 39,000  Level Denver Center
Wed 02:55:51 PM 40.1689 -100.9772 83° East 527 606 39,000  Level Denver Center
Wed 02:56:53 PM 40.1858 -100.7961 83° East 528 608 39,000  Level Denver Center
Wed 02:57:55 PM 40.2044 -100.5833 83° East 531 611 39,000  Level Denver Center
Wed 02:58:57 PM 40.2067 -100.3978 89° East 537 618 39,000  Level Denver Center
Wed 02:59:59 PM 40.2103 -100.1811 89° East 537 618 39,000  Level Denver Center
Wed 03:01:01 PM 40.2128 -99.9942 89° East 539 620 39,000  Level Denver Center
Wed 03:02:02 PM 40.2153 -99.7781 89° East 540 621 39,000  Level Denver Center
Wed 03:03:04 PM 40.2175 -99.5833 89° East 539 620 39,000  Level Denver Center
Wed 03:04:06 PM 40.2189 -99.3892 89° East 536 617 39,000  Level Denver Center
Wed 03:05:08 PM 40.2208 -99.1978 89° East 530 610 39,000  Level Denver Center
Wed 03:06:10 PM 40.2222 -99.0053 89° East 531 611 39,000  Level Denver Center
Wed 03:07:12 PM 40.2228 -98.8131 90° East 531 611 39,000  Level Denver Center
Wed 03:07:43 PM 40.2231 -98.6969 90° East 532 612 39,000  Level Minneapolis Center
Wed 03:08:45 PM 40.2225 -98.5036 90° East 533 613 39,000  Level Minneapolis Center
Wed 03:09:47 PM 40.2222 -98.3114 90° East 532 612 39,000  Level Minneapolis Center
Wed 03:10:49 PM 40.2219 -98.0792 90° East 533 613 39,000  Level Minneapolis Center
Wed 03:11:51 PM 40.2219 -97.8856 90° East 534 615 39,000  Level Minneapolis Center
Wed 03:12:52 PM 40.2197 -97.6917 91° East 535 616 39,000  Level Minneapolis Center
Wed 03:13:54 PM 40.2183 -97.5000 90° East 531 611 39,000  Level Minneapolis Center
Wed 03:14:56 PM 40.2167 -97.3189 91° East 531 611 39,000  Level Minneapolis Center
Wed 03:15:58 PM 40.2144 -97.0878 91° East 532 612 39,000  Level Minneapolis Center
Wed 03:17:00 PM 40.2111 -96.8983 91° East 526 605 39,000  Level Minneapolis Center
Wed 03:18:01 PM 40.2089 -96.7067 91° East 528 608 39,000  Level Minneapolis Center
Wed 03:19:03 PM 40.2058 -96.5178 91° East 525 604 39,000  Level Minneapolis Center
Wed 03:20:05 PM 40.2028 -96.3261 91° East 527 606 39,000  Level Minneapolis Center
Wed 03:21:07 PM 40.1994 -96.1364 91° East 526 605 39,000  Level Minneapolis Center
Wed 03:22:08 PM 40.2003 -95.9042 90° East 533 613 39,000  Level Minneapolis Center
Wed 03:23:10 PM 40.1983 -95.7092 91° East 538 619 39,000  Level Minneapolis Center
Wed 03:24:12 PM 40.1981 -95.5164 90° East 534 615 39,000  Level Minneapolis Center
Wed 03:25:14 PM 40.1956 -95.3247 91° East 532 612 39,000  Level Minneapolis Center
Wed 03:26:15 PM 40.1931 -95.1331 91° East 530 610 39,000  Level Minneapolis Center
Wed 03:27:17 PM 40.1914 -94.9400 91° East 531 611 39,000  Level Minneapolis Center
Wed 03:28:19 PM 40.1897 -94.7469 91° East 534 615 39,000  Level Minneapolis Center
Wed 03:29:21 PM 40.1858 -94.5436 91° East 531 611 39,000  Level Minneapolis Center
Wed 03:30:21 PM 40.1797 -94.3400 92° East 529 609 39,000  Level Kansas City Center
Wed 03:31:25 PM 40.1756 -94.1242 91° East 530 610 39,000  Level Kansas City Center
Wed 03:32:26 PM 40.1683 -93.9275 93° East 539 620 39,000  Level Kansas City Center
Wed 03:33:27 PM 40.1642 -93.7361 92° East 533 613 39,000  Level Kansas City Center
Wed 03:34:30 PM 40.1592 -93.5442 92° East 532 612 39,000  Level Kansas City Center
Wed 03:35:31 PM 40.1558 -93.3517 91° East 535 616 39,000  Level Kansas City Center
Wed 03:36:34 PM 40.1508 -93.1597 92° East 537 618 39,000  Level Kansas City Center
Wed 03:37:35 PM 40.1450 -92.9486 92° East 528 608 39,000  Level Kansas City Center
Wed 03:38:38 PM 40.1381 -92.7344 92° East 529 609 39,000  Level Kansas City Center
Wed 03:39:40 PM 40.1333 -92.5503 92° East 529 609 39,000  Level Kansas City Center
Wed 03:40:43 PM 40.1122 -92.3333 97° East 531 611 39,000  Level Kansas City Center
Wed 03:41:44 PM 40.0947 -92.1439 97° East 533 613 39,000  Level Kansas City Center
Wed 03:42:47 PM 40.0764 -91.9550 97° East 531 611 39,000  Level Kansas City Center
Wed 03:43:47 PM 40.0594 -91.7664 97° East 530 610 39,000  Level Kansas City Center
Wed 03:44:49 PM 40.0403 -91.5769 97° East 530 610 39,000  Level Kansas City Center
Wed 03:45:52 PM 40.0175 -91.3503 97° East 529 609 39,000  Level Kansas City Center
Wed 03:46:53 PM 39.9994 -91.1614 97° East 530 610 39,000  Level Kansas City Center
Wed 03:47:57 PM 39.9789 -90.9675 98° East 528 608 39,000  Level Kansas City Center
Wed 03:48:57 PM 39.9592 -90.7650 97° East 528 608 39,000  Level Kansas City Center
Wed 03:50:01 PM 39.9389 -90.5778 98° East 526 605 39,000  Level Kansas City Center
Wed 03:51:01 PM 39.9181 -90.3900 98° East 526 605 39,000  Level Kansas City Center
Wed 03:52:05 PM 39.8981 -90.2028 98° East 525 604 39,000  Level Kansas City Center
Wed 03:53:05 PM 39.8772 -90.0142 98° East 529 609 39,000  Level Kansas City Center
Wed 03:54:09 PM 39.8522 -89.7894 98° East 527 606 39,000  Level Kansas City Center
Wed 03:55:09 PM 39.8403 -89.5992 95° East 533 613 39,000  Level Kansas City Center
Wed 03:56:13 PM 39.8406 -89.4078 90° East 534 615 39,000  Level Kansas City Center
Wed 03:57:14 PM 39.8414 -89.2186 90° East 530 610 39,000  Level Kansas City Center
Wed 03:58:15 PM 39.8428 -89.0278 89° East 529 609 39,000  Level Kansas City Center
Wed 03:59:19 PM 39.8422 -88.8353 90° East 531 611 39,000  Level Kansas City Center
Wed 04:00:20 PM 39.8422 -88.6064 90° East 531 611 39,000  Level Kansas City Center
Wed 04:01:24 PM 39.8425 -88.4156 90° East 529 609 39,000  Level Kansas City Center
Wed 04:02:24 PM 39.8425 -88.2244 90° East 530 610 39,000  Level Kansas City Center
Wed 04:03:15 PM 39.8378 -88.0472 92° East 529 609 39,000  Level Indianapolis Center
Wed 04:04:17 PM 39.8367 -87.8533 90° East 532 612 39,000  Level Indianapolis Center
Wed 04:05:19 PM 39.8356 -87.6586 90° East 534 615 39,000  Level Indianapolis Center
Wed 04:06:21 PM 39.8336 -87.4644 91° East 534 615 39,000  Level Indianapolis Center
Wed 04:07:23 PM 39.8303 -87.2708 91° East 533 613 39,000  Level Indianapolis Center
Wed 04:08:25 PM 39.8272 -87.0769 91° East 534 615 39,000  Level Indianapolis Center
Wed 04:09:27 PM 39.8242 -86.8514 91° East 532 612 39,000  Level Indianapolis Center
Wed 04:10:29 PM 39.8208 -86.6578 91° East 532 612 39,000  Level Indianapolis Center
Wed 04:11:31 PM 39.8167 -86.4650 92° East 530 610 39,000  Level Indianapolis Center
Wed 04:12:33 PM 39.8183 -86.2758 89° East 531 611 39,000  Level Indianapolis Center
Wed 04:13:35 PM 39.8331 -86.0667 85° East 535 616 39,000  Level Indianapolis Center
Wed 04:14:37 PM 39.8431 -85.8731 86° East 533 613 39,000  Level Indianapolis Center
Wed 04:15:39 PM 39.8533 -85.6806 86° East 531 611 39,000  Level Indianapolis Center
Wed 04:16:42 PM 39.8639 -85.4889 86° East 528 608 39,000  Level Indianapolis Center
Wed 04:17:44 PM 39.8733 -85.2975 86° East 527 606 39,000  Level Indianapolis Center
Wed 04:18:46 PM 39.8844 -85.0728 86° East 533 613 39,000  Level Indianapolis Center
Wed 04:19:48 PM 39.8942 -84.8786 86° East 535 616 39,000  Level Indianapolis Center
Wed 04:20:50 PM 39.9047 -84.6797 86° East 532 612 39,000  Level Indianapolis Center
Wed 04:21:52 PM 39.9139 -84.4856 86° East 532 612 39,000  Level Indianapolis Center
Wed 04:22:54 PM 39.9222 -84.2919 87° East 531 611 39,000  Level Indianapolis Center
Wed 04:23:56 PM 39.9300 -84.0981 87° East 532 612 39,000  Level Indianapolis Center
Wed 04:24:58 PM 39.9375 -83.9042 87° East 529 609 39,000  Level Indianapolis Center
Wed 04:26:00 PM 39.9444 -83.7092 87° East 530 610 39,000  Level Indianapolis Center
Wed 04:27:02 PM 39.9511 -83.5131 87° East 527 606 39,000  Level Indianapolis Center
Wed 04:28:04 PM 39.9597 -83.3172 87° East 523 602 39,000  Level Indianapolis Center
Wed 04:29:06 PM 39.9650 -83.1250 88° East 523 602 39,000  Level Indianapolis Center
Wed 04:30:08 PM 39.9686 -82.9336 89° East 522 601 39,000  Level Indianapolis Center
Wed 04:31:10 PM 39.9761 -82.7125 87° East 520 598 39,000  Level Indianapolis Center
Wed 04:32:12 PM 39.9811 -82.5222 88° East 521 600 39,000  Level Indianapolis Center
Wed 04:33:14 PM 39.9861 -82.3294 88° East 526 605 39,000  Level Indianapolis Center
Wed 04:34:17 PM 39.9919 -82.1364 88° East 528 608 39,000  Level Indianapolis Center
Wed 04:35:19 PM 39.9964 -81.9444 88° East 526 605 39,000  Level Indianapolis Center
Wed 04:36:21 PM 40.0017 -81.7522 88° East 525 604 39,000  Level Indianapolis Center
Wed 04:37:23 PM 40.0039 -81.5608 89° East 524 603 39,000  Level Indianapolis Center
Wed 04:38:25 PM 40.0092 -81.3372 88° East 525 604 39,000 -145 Level Indianapolis Center
Wed 04:39:27 PM 40.0122 -81.1450 89° East 526 605 38,700 -494 Descending Indianapolis Center
Wed 04:39:50 PM 40.0161 -81.0656 86° East 516 594 38,300 -940 Descending Cleveland Center
Wed 04:40:50 PM 40.0189 -80.8758 89° East 521 600 37,400 -650 Descending Cleveland Center
Wed 04:41:50 PM 39.9753 -80.7186 110° East 471 542 37,000 -200 Descending Cleveland Center
Wed 04:42:50 PM 39.9067 -80.5803 123° Southeast 451 519 37,000 -450 Level Cleveland Center
Wed 04:43:50 PM 39.8419 -80.4397 121° Southeast 451 519 36,100 -888 Descending Cleveland Center
Wed 04:45:39 PM 39.7269 -80.2122 123° Southeast 456 525 34,500 -902 Descending Indianapolis Center
Wed 04:46:43 PM 39.6542 -80.0525 121° Southeast 455 524 33,500 -1,065 Descending Washington Center
Wed 04:47:43 PM 39.5861 -79.9161 123° Southeast 455 524 32,300 -1,700 Descending Washington Center
Wed 04:48:43 PM 39.5394 -79.7628 111° Southeast 449 517 30,100 -2,200 Descending Washington Center
Wed 04:49:43 PM 39.5136 -79.6025 102° East 449 517 27,900 -1,550 Descending Washington Center
Wed 04:50:43 PM 39.4833 -79.4422 104° East 449 517 27,000 -950 Descending Washington Center
Wed 04:51:43 PM 39.4550 -79.2819 103° East 455 524 26,000 -1,700 Descending Washington Center
Wed 04:52:43 PM 39.4244 -79.1244 104° East 455 524 23,600 -2,300 Descending Washington Center
Wed 04:53:43 PM 39.3975 -78.9703 103° East 445 512 21,400 -2,200 Descending Washington Center
Wed 04:54:43 PM 39.3703 -78.8214 103° East 433 498 19,200 -2,250 Descending Washington Center
Wed 04:55:43 PM 39.3431 -78.6669 103° East 421 484 16,900 -2,200 Descending Washington Center
Wed 04:56:43 PM 39.3175 -78.5264 103° East 408 470 14,800 -2,150 Descending Washington Center
Wed 04:57:43 PM 39.2917 -78.3886 104° East 402 463 12,600 -1,750 Descending Washington Center
Wed 04:58:43 PM 39.2419 -78.2769 120° Southeast 377 434 11,300 -1,300 Descending Washington Center
Wed 04:59:43 PM 39.2025 -78.1708 116° Southeast 354 407 10,000 -1,500 Descending Washington Center
Wed 05:00:43 PM 39.2261 -78.0486 76° East 325 374 8,300 -1,488 Descending Washington Center
Wed 05:01:44 PM 39.2431 -77.9283 80° East 325 374 7,000 -1,250 Descending Washington Center
Wed 05:02:43 PM 39.2494 -77.8133 86° East 325 374 5,800 -1,008 Descending Washington Center
Wed 05:03:43 PM 39.2450 -77.7089 93° East 317 365 5,000 -900 Descending Washington Center
Wed 05:04:43 PM 39.2217 -77.6144 108° East 290 334 4,000 -638 Descending Washington Center
Wed 05:05:17 PM 39.2000 -77.5667 120° Southeast 266 306 4,000 -128 Level Potomac TRACON
Wed 05:06:17 PM 39.1833 -77.4833 104° East 236 272 3,800 -454 Descending Potomac TRACON
Wed 05:07:16 PM 39.1333 -77.4500 153° Southeast 189 217 3,100 -650 Descending Potomac TRACON
Wed 05:08:17 PM 39.0833 -77.4500 180° South 172 198 2,500 -730 Descending Potomac TRACON
Wed 05:09:11 PM 39.0500 -77.4667 201° Southwest 154 177 1,700 -737 Descending Potomac TRACON
Wed 05:10:11 PM 39.0167 -77.4667 180° South 126 145 1,100 -600 Descending Potomac TRACON
Wed 05:12:00 PM 38.9474 -77.4599 165° South  Level Estimated
Wed 05:19:00 PM 38.9474 -77.4599 165° South  Level Estimated
Wed 05:20:00 PM 38.9474 -77.4599 165° South  Level Estimated

Login

Don't have an account? Register now (free) for customized features, flight alerts, and more!